Portada
METAR-TAF:

METAR-TAF

Aeroports :

Tawau, Malàisia

latitud: 04-16N, longitud: 117-53E, altitud: 18 m

Observació

L'informe es va fer fa 41 minuts, a les 17:00 UTC
Vent 4 kt del Nord-Oest
Temperatura 24°C
Humitat 94%
Pressió 1011 hPa
Visibilitat: 9000 m
Escasses núvols a una alçada de 1700 ft
Cel ennuvolat a una alçada de 30000 ft

METAR: WBKW 211700Z 32004KT 9000 FEW017 BKN300 24/23 Q1011

Hora: 01:41 (17:41 UTC)

Pronòstic

L'informe es va fer fa 41 minuts, a les 17:00 UTC
Pronòstic vàlid del 21 a les 18 UTC al 22 a les 18 UTC
Vent 5 kt del Sud/Sud-Est
Visibilitat 10 km o més
Escasses núvols a una alçada de 1700 ft

TAF: WBKW 211700Z 2118/2218 15005KT 9999 FEW017

Observacions i pronòstics meteorològics de més de 4000 aeroports (METAR i TAF).

Les estacions disponibles són els punts grocs i vermells al mapa.

Posi el ratolí al punt desitjat per veure el nom de l'estació.

Feu clic per veure les observacions i els pronòstics meteorològics.

Per canviar el mapa: feu clic els botons verds amb una creu de color negre per apropar; al botó verd amb un guió per allunyar la imatge; o en les fletxes verdes per a mapes adjacents.


METAR-TAF: